createdAt,value
2023-05-11T00:02:15.225Z,68.21
2023-05-11T00:04:42.767Z,68.64
2023-05-11T00:07:09.996Z,68.73
2023-05-11T00:09:38.522Z,69.09
2023-05-11T00:12:06.228Z,68.89
2023-05-11T00:14:33.416Z,68.61
2023-05-11T00:17:00.540Z,68.56
2023-05-11T00:19:28.132Z,68.38
2023-05-11T00:21:55.392Z,67.99
2023-05-11T00:24:22.450Z,67.96
2023-05-11T00:26:49.609Z,67.53
2023-05-11T00:29:16.837Z,67.72
2023-05-11T00:31:48.182Z,67.24
2023-05-11T00:34:16.568Z,67.51
2023-05-11T00:36:43.702Z,67.48
2023-05-11T00:39:12.617Z,67.42
2023-05-11T00:41:39.861Z,67.55
2023-05-11T00:44:07.035Z,67.54
2023-05-11T00:46:34.192Z,68.53
2023-05-11T00:49:01.445Z,69.64
2023-05-11T00:51:28.498Z,70.12
2023-05-11T00:53:55.947Z,70.76
2023-05-11T00:56:23.298Z,71.42
2023-05-11T00:58:50.494Z,71.69
2023-05-11T01:01:18.777Z,71.92
2023-05-11T01:03:46.544Z,72.86
2023-05-11T01:06:28.150Z,73.35
2023-05-11T01:09:06.598Z,73.53
2023-05-11T01:11:47.364Z,73.72
2023-05-11T01:14:23.540Z,73.62
2023-05-11T01:16:54.154Z,73.90
2023-05-11T01:19:56.835Z,74.25
2023-05-11T01:22:52.130Z,73.65
2023-05-11T01:25:44.417Z,74.10
2023-05-11T01:28:50.474Z,74.34
2023-05-11T01:31:18.172Z,74.30
2023-05-11T01:33:58.365Z,74.51
2023-05-11T01:36:29.241Z,74.88
2023-05-11T01:38:58.280Z,75.35
2023-05-11T01:41:26.517Z,75.25
2023-05-11T01:43:54.891Z,75.38
2023-05-11T01:46:22.865Z,75.13
2023-05-11T01:48:51.539Z,75.57
2023-05-11T01:51:20.912Z,76.03
2023-05-11T01:53:48.011Z,76.22
2023-05-11T01:56:15.185Z,76.60
2023-05-11T01:58:42.520Z,76.67
2023-05-11T02:01:09.947Z,76.61
2023-05-11T02:03:37.445Z,76.69
2023-05-11T02:06:05.398Z,76.93
2023-05-11T02:08:34.006Z,77.17
2023-05-11T02:11:01.393Z,77.05
2023-05-11T02:13:29.184Z,76.92
2023-05-11T02:15:56.978Z,77.17
2023-05-11T02:18:24.368Z,77.27
2023-05-11T02:20:59.415Z,77.19
2023-05-11T02:23:27.816Z,76.38
2023-05-11T02:25:55.329Z,76.70
2023-05-11T02:28:22.939Z,76.76
2023-05-11T02:30:52.442Z,76.86
2023-05-11T02:33:31.809Z,76.46
2023-05-11T02:35:59.079Z,76.68
2023-05-11T02:38:33.684Z,76.60
2023-05-11T02:41:07.431Z,76.44
2023-05-11T02:43:37.201Z,76.46
2023-05-11T02:46:07.104Z,77.06
2023-05-11T02:48:43.119Z,77.26
2023-05-11T02:51:11.417Z,76.81
2023-05-11T02:53:45.529Z,76.54
2023-05-11T02:56:12.775Z,76.56
2023-05-11T02:58:39.902Z,76.27
2023-05-11T03:01:27.968Z,76.09
2023-05-11T03:03:57.302Z,75.67
2023-05-11T03:06:26.409Z,75.59
2023-05-11T03:08:53.654Z,75.65
2023-05-11T03:11:21.250Z,75.33
2023-05-11T03:13:50.185Z,75.18
2023-05-11T03:16:21.017Z,75.02
2023-05-11T03:18:49.500Z,74.19
2023-05-11T03:21:18.649Z,73.96
2023-05-11T03:23:46.108Z,73.93
2023-05-11T03:26:14.826Z,72.83
2023-05-11T03:28:41.989Z,72.35
2023-05-11T03:31:09.164Z,72.05
2023-05-11T03:33:36.396Z,72.00
2023-05-11T03:36:06.153Z,71.28
2023-05-11T03:38:34.385Z,70.57
2023-05-11T03:41:01.763Z,69.60
2023-05-11T03:43:32.016Z,68.24
2023-05-11T03:45:59.343Z,67.58
2023-05-11T03:48:26.959Z,66.79
2023-05-11T03:50:54.044Z,65.62
2023-05-11T03:53:21.220Z,64.33
2023-05-11T03:55:50.090Z,62.91
2023-05-11T03:58:17.329Z,61.99
2023-05-11T04:00:44.472Z,61.48
2023-05-11T04:03:12.434Z,61.31
2023-05-11T04:05:39.777Z,59.88
2023-05-11T04:08:09.624Z,59.61
2023-05-11T04:10:38.287Z,59.87
2023-05-11T04:13:05.614Z,59.41
2023-05-11T04:15:32.813Z,57.96
2023-05-11T04:17:59.929Z,57.53
2023-05-11T04:20:27.196Z,56.98
2023-05-11T04:22:54.750Z,56.25
2023-05-11T04:25:21.988Z,56.65
2023-05-11T04:27:49.164Z,57.10
2023-05-11T04:30:16.647Z,57.00
2023-05-11T04:32:44.033Z,56.11
2023-05-11T04:35:11.400Z,55.24
2023-05-11T04:37:39.793Z,55.12
2023-05-11T04:40:09.338Z,54.74
2023-05-11T04:42:41.432Z,53.93
2023-05-11T04:45:17.715Z,52.99
2023-05-11T04:47:45.356Z,52.90
2023-05-11T04:50:13.379Z,52.42
2023-05-11T04:52:40.567Z,52.13
2023-05-11T04:55:08.610Z,51.97
2023-05-11T04:57:35.825Z,51.97
2023-05-11T05:00:07.226Z,52.41
2023-05-11T05:02:35.743Z,51.87
2023-05-11T05:05:03.244Z,51.34
2023-05-11T05:07:32.116Z,51.20
2023-05-11T05:09:59.303Z,50.77
2023-05-11T05:12:26.525Z,51.07
2023-05-11T05:14:53.725Z,50.62
2023-05-11T05:17:21.008Z,50.72
2023-05-11T05:19:48.168Z,51.13
2023-05-11T05:22:15.940Z,50.88
2023-05-11T05:24:43.102Z,51.13
2023-05-11T05:27:10.628Z,50.93
2023-05-11T05:29:38.168Z,50.59
2023-05-11T05:32:06.061Z,51.14
2023-05-11T05:34:33.277Z,51.36
2023-05-11T05:37:00.634Z,50.54
2023-05-11T05:39:27.836Z,50.47
2023-05-11T05:41:55.013Z,49.74
2023-05-11T05:44:22.926Z,50.03
2023-05-11T05:46:50.107Z,49.96
2023-05-11T05:49:18.036Z,49.83
2023-05-11T05:51:45.531Z,50.02
2023-05-11T05:54:13.494Z,49.36
2023-05-11T05:56:41.140Z,49.52
2023-05-11T05:59:09.285Z,49.35
2023-05-11T06:01:36.763Z,49.69
2023-05-11T06:04:04.057Z,49.93
2023-05-11T06:06:32.294Z,49.31
2023-05-11T06:08:59.370Z,49.52
2023-05-11T06:11:27.421Z,49.68
2023-05-11T06:13:54.821Z,48.92
2023-05-11T06:16:21.926Z,48.08
2023-05-11T06:18:49.084Z,48.12
2023-05-11T06:21:16.356Z,46.91
2023-05-11T06:23:43.809Z,46.43
2023-05-11T06:26:11.995Z,46.46
2023-05-11T06:28:39.909Z,46.08
2023-05-11T06:31:11.637Z,45.58
2023-05-11T06:33:40.722Z,45.26
2023-05-11T06:36:12.945Z,45.58
2023-05-11T06:38:40.040Z,45.06
2023-05-11T06:41:11.343Z,45.45
2023-05-11T06:43:38.617Z,45.35
2023-05-11T06:46:17.811Z,43.63
2023-05-11T06:48:45.299Z,43.19
2023-05-11T06:51:12.673Z,43.13
2023-05-11T06:53:39.866Z,42.32
2023-05-11T06:56:07.827Z,41.93
2023-05-11T06:58:35.356Z,42.08
2023-05-11T07:01:05.439Z,41.50
2023-05-11T07:03:32.626Z,41.78
2023-05-11T07:05:59.943Z,41.44
2023-05-11T07:08:27.115Z,40.99
2023-05-11T07:10:54.327Z,40.87
2023-05-11T07:13:21.627Z,41.18
2023-05-11T07:15:49.844Z,39.98
2023-05-11T07:18:17.651Z,38.61
2023-05-11T07:20:46.928Z,37.86
2023-05-11T07:23:14.144Z,37.41
2023-05-11T07:25:41.350Z,38.10
2023-05-11T07:28:08.513Z,38.13
2023-05-11T07:30:35.757Z,38.20
2023-05-11T07:33:03.361Z,38.10
2023-05-11T07:35:31.266Z,39.01
2023-05-11T07:37:58.401Z,38.75
2023-05-11T07:40:25.801Z,37.39
2023-05-11T07:42:54.163Z,37.55
2023-05-11T07:45:21.575Z,37.76
2023-05-11T07:47:49.011Z,36.00
2023-05-11T07:50:17.253Z,36.31
2023-05-11T07:52:44.430Z,37.19
2023-05-11T07:55:11.737Z,37.21
2023-05-11T07:57:38.864Z,37.37
2023-05-11T08:00:07.467Z,37.93
2023-05-11T08:02:39.226Z,37.56
2023-05-11T08:05:07.309Z,37.86
2023-05-11T08:07:34.613Z,37.58
2023-05-11T08:10:01.762Z,38.03
2023-05-11T08:12:29.559Z,38.17
2023-05-11T08:14:56.818Z,38.00
2023-05-11T08:17:23.957Z,37.53
2023-05-11T08:19:51.851Z,38.08
2023-05-11T08:22:19.130Z,37.73
2023-05-11T08:24:47.031Z,37.55
2023-05-11T08:27:15.323Z,37.63
2023-05-11T08:29:42.512Z,37.79
2023-05-11T08:32:09.743Z,36.10
2023-05-11T08:34:37.016Z,35.78
2023-05-11T08:37:04.523Z,34.93
2023-05-11T08:42:07.233Z,35.39
2023-05-11T08:44:35.373Z,35.03
2023-05-11T08:47:20.925Z,34.32
2023-05-11T08:49:51.139Z,32.46
2023-05-11T08:52:18.466Z,31.54
2023-05-11T08:54:46.800Z,31.64
2023-05-11T08:57:14.171Z,32.00
2023-05-11T08:59:42.290Z,31.79
2023-05-11T09:02:10.861Z,31.40
2023-05-11T09:04:38.200Z,31.29
2023-05-11T09:07:05.428Z,31.62
2023-05-11T09:09:32.786Z,30.83
2023-05-11T09:12:00.228Z,30.83
2023-05-11T09:14:27.921Z,31.34
2023-05-11T09:16:55.157Z,30.04
2023-05-11T09:19:22.505Z,29.96
2023-05-11T09:21:49.794Z,30.65
2023-05-11T09:24:17.075Z,32.77
2023-05-11T09:26:44.234Z,32.51
2023-05-11T09:29:11.794Z,33.57
2023-05-11T09:31:46.704Z,34.36
2023-05-11T09:34:21.709Z,34.60
2023-05-11T09:36:50.938Z,34.56
2023-05-11T09:39:35.117Z,35.63
2023-05-11T09:42:18.291Z,35.97
2023-05-11T09:44:46.157Z,35.90
2023-05-11T09:47:17.702Z,36.38
2023-05-11T09:49:45.622Z,36.74
2023-05-11T09:52:16.991Z,37.02
2023-05-11T09:54:45.452Z,37.60
2023-05-11T09:57:27.024Z,37.53
2023-05-11T09:59:56.525Z,37.56
2023-05-11T10:02:31.049Z,37.81
2023-05-11T10:04:59.845Z,37.89
2023-05-11T10:07:31.828Z,38.26
2023-05-11T10:10:01.614Z,37.78
2023-05-11T10:12:30.634Z,38.03
2023-05-11T10:15:06.918Z,38.16
2023-05-11T10:17:37.690Z,38.56
2023-05-11T10:20:06.214Z,39.13
2023-05-11T10:22:36.261Z,38.37
2023-05-11T10:25:06.102Z,38.60
2023-05-11T10:27:33.355Z,38.80
2023-05-11T10:30:00.449Z,40.43
2023-05-11T10:32:27.820Z,42.47
2023-05-11T10:34:55.155Z,45.58
2023-05-11T10:37:22.241Z,48.72
2023-05-11T10:39:50.652Z,51.32
2023-05-11T10:42:24.226Z,51.97
2023-05-11T10:45:15.680Z,51.83
2023-05-11T10:47:58.376Z,52.87
2023-05-11T10:50:37.695Z,53.93
2023-05-11T10:53:26.057Z,54.64
2023-05-11T10:55:56.279Z,55.76
2023-05-11T10:58:36.549Z,57.07
2023-05-11T11:01:38.300Z,58.12
2023-05-11T11:04:07.122Z,58.82
2023-05-11T11:06:35.135Z,57.01
2023-05-11T11:09:08.000Z,51.48
2023-05-11T11:11:39.813Z,50.02
2023-05-11T11:14:09.543Z,47.72
2023-05-11T11:16:37.376Z,45.29
2023-05-11T11:19:32.869Z,44.66
2023-05-11T11:22:01.195Z,44.01
2023-05-11T11:24:37.617Z,43.81
2023-05-11T11:27:08.700Z,42.94
2023-05-11T11:29:36.230Z,43.64
2023-05-11T11:32:21.880Z,45.46
2023-05-11T11:34:49.604Z,45.49
2023-05-11T11:37:17.432Z,45.13
2023-05-11T11:39:44.906Z,42.93
2023-05-11T11:42:18.579Z,42.21
2023-05-11T11:44:45.986Z,40.39
2023-05-11T11:47:22.769Z,38.61
2023-05-11T11:49:53.884Z,39.31
2023-05-11T11:52:27.122Z,36.88
2023-05-11T11:54:56.071Z,37.29
2023-05-11T11:57:32.694Z,37.28
2023-05-11T12:00:05.857Z,36.90
2023-05-11T12:02:43.258Z,35.86
2023-05-11T12:05:13.036Z,36.24
2023-05-11T12:07:42.163Z,36.59
2023-05-11T12:10:12.231Z,37.07
2023-05-11T12:12:39.976Z,36.57
2023-05-11T12:15:07.972Z,35.18
2023-05-11T12:17:38.137Z,34.65
2023-05-11T12:20:15.345Z,34.47
2023-05-11T12:22:42.725Z,36.20
2023-05-11T12:25:11.487Z,37.24
2023-05-11T12:27:48.833Z,38.17
2023-05-11T12:30:26.364Z,39.88
2023-05-11T12:35:25.353Z,43.31
2023-05-11T12:37:52.767Z,43.91
2023-05-11T12:40:20.325Z,44.72
2023-05-11T12:42:57.502Z,46.35
2023-05-11T12:45:25.677Z,45.69
2023-05-11T12:47:55.149Z,45.65
2023-05-11T12:50:22.817Z,44.22
2023-05-11T12:52:50.597Z,44.19
2023-05-11T12:55:30.634Z,44.38
2023-05-11T12:58:08.032Z,44.58
2023-05-11T13:00:35.424Z,44.90
2023-05-11T13:03:02.729Z,43.84
2023-05-11T13:05:30.623Z,43.77
2023-05-11T13:08:02.189Z,43.89
2023-05-11T13:10:29.462Z,43.95
2023-05-11T13:12:56.701Z,43.93
2023-05-11T13:15:24.576Z,45.00
2023-05-11T13:17:59.267Z,44.70
2023-05-11T13:20:31.099Z,44.14
2023-05-11T13:23:11.830Z,43.36
2023-05-11T13:25:51.728Z,43.56
2023-05-11T13:28:20.723Z,43.57
2023-05-11T13:30:48.920Z,45.04
2023-05-11T13:33:16.279Z,45.69
2023-05-11T13:35:43.549Z,47.57
2023-05-11T13:38:13.942Z,50.21
2023-05-11T13:40:41.317Z,52.41
2023-05-11T13:43:08.562Z,53.71
2023-05-11T13:45:36.670Z,54.60
2023-05-11T13:48:04.240Z,55.59
2023-05-11T13:50:32.368Z,56.01
2023-05-11T13:52:59.526Z,56.16
2023-05-11T13:55:26.859Z,56.38
2023-05-11T13:57:54.025Z,56.85
2023-05-11T14:00:21.533Z,57.58
2023-05-11T14:02:50.710Z,57.71
2023-05-11T14:05:18.407Z,58.23
2023-05-11T14:07:48.413Z,58.35
2023-05-11T14:10:17.169Z,58.59
2023-05-11T14:12:44.790Z,59.25
2023-05-11T14:15:12.108Z,59.46
2023-05-11T14:17:41.722Z,59.80
2023-05-11T14:20:09.730Z,60.12
2023-05-11T14:22:36.913Z,59.82
2023-05-11T14:25:04.366Z,59.78
2023-05-11T14:27:31.800Z,59.84
2023-05-11T14:29:58.933Z,60.11
2023-05-11T14:32:27.037Z,60.25
2023-05-11T14:34:54.266Z,60.04
2023-05-11T14:37:21.389Z,60.10
2023-05-11T14:39:48.659Z,59.58
2023-05-11T14:42:15.806Z,59.49
2023-05-11T14:44:42.961Z,59.01
2023-05-11T14:47:10.013Z,59.39
2023-05-11T14:49:37.153Z,59.25
2023-05-11T14:52:04.609Z,59.87
2023-05-11T14:54:31.783Z,59.46
2023-05-11T14:56:59.655Z,58.90
2023-05-11T14:59:27.054Z,58.26
2023-05-11T15:01:54.323Z,58.01
2023-05-11T15:04:22.353Z,57.76
2023-05-11T15:06:49.636Z,58.02
2023-05-11T15:09:16.998Z,58.04
2023-05-11T15:11:44.317Z,58.35
2023-05-11T15:14:11.557Z,58.94
2023-05-11T15:16:38.710Z,58.97
2023-05-11T15:19:06.354Z,59.12
2023-05-11T15:21:33.679Z,59.38
2023-05-11T15:24:01.097Z,59.71
2023-05-11T15:26:28.293Z,59.85
2023-05-11T15:28:55.561Z,60.24
2023-05-11T15:31:22.698Z,59.61
2023-05-11T15:33:50.118Z,59.17
2023-05-11T15:36:17.190Z,58.70
2023-05-11T15:38:45.400Z,58.56
2023-05-11T15:41:12.709Z,59.28
2023-05-11T15:43:39.812Z,59.77
2023-05-11T15:46:07.699Z,60.29
2023-05-11T15:48:35.052Z,60.88
2023-05-11T15:51:02.888Z,61.33
2023-05-11T15:53:30.087Z,61.53
2023-05-11T15:55:57.377Z,62.22
2023-05-11T15:58:24.716Z,62.50
2023-05-11T16:00:52.138Z,62.90
2023-05-11T16:03:19.951Z,63.49
2023-05-11T16:05:47.527Z,64.17
2023-05-11T16:08:14.952Z,65.11
2023-05-11T16:10:42.078Z,65.86
2023-05-11T16:13:09.850Z,66.89
2023-05-11T16:15:37.150Z,67.50
2023-05-11T16:18:05.295Z,68.44
2023-05-11T16:20:32.852Z,69.00
2023-05-11T16:23:00.059Z,69.47
2023-05-11T16:25:27.340Z,70.10
2023-05-11T16:27:54.390Z,70.81
2023-05-11T16:30:25.360Z,71.84
2023-05-11T16:32:53.850Z,72.68
2023-05-11T16:35:21.455Z,73.17
2023-05-11T16:37:48.801Z,73.61
2023-05-11T16:40:19.189Z,74.21
2023-05-11T16:42:48.647Z,74.89
2023-05-11T16:45:16.635Z,75.44
2023-05-11T16:47:46.763Z,75.52
2023-05-11T16:50:16.266Z,75.66
2023-05-11T16:52:43.792Z,76.20
2023-05-11T16:55:11.603Z,76.38
2023-05-11T16:57:38.830Z,76.78
2023-05-11T17:00:06.790Z,77.37
2023-05-11T17:02:34.329Z,77.72
2023-05-11T17:05:01.613Z,78.10
2023-05-11T17:07:29.205Z,78.26
2023-05-11T17:09:57.290Z,78.45
2023-05-11T17:12:24.632Z,78.41
2023-05-11T17:14:51.893Z,78.49
2023-05-11T17:17:19.091Z,78.62
2023-05-11T17:19:46.483Z,78.68
2023-05-11T17:22:14.032Z,78.59
2023-05-11T17:24:41.229Z,78.57
2023-05-11T17:27:08.371Z,78.32
2023-05-11T17:29:35.492Z,78.45
2023-05-11T17:32:03.453Z,78.66
2023-05-11T17:34:31.237Z,78.70
2023-05-11T17:36:58.602Z,78.68
2023-05-11T17:39:25.712Z,78.60
2023-05-11T17:41:53.294Z,78.80
2023-05-11T17:44:21.369Z,78.93
2023-05-11T17:46:49.495Z,79.05
2023-05-11T17:49:26.997Z,79.32
2023-05-11T17:51:54.384Z,79.57
2023-05-11T17:54:21.583Z,79.94
2023-05-11T17:56:49.052Z,80.05
2023-05-11T17:59:16.560Z,80.10
2023-05-11T18:01:43.689Z,80.53
2023-05-11T18:04:10.993Z,80.40
2023-05-11T18:06:38.311Z,80.36
2023-05-11T18:09:06.045Z,80.51
2023-05-11T18:11:33.182Z,80.43
2023-05-11T18:14:00.372Z,80.56
2023-05-11T18:16:27.844Z,80.94
2023-05-11T18:18:55.394Z,81.03
2023-05-11T18:21:22.685Z,81.16
2023-05-11T18:23:50.240Z,81.17
2023-05-11T18:26:19.289Z,80.91
2023-05-11T18:28:46.563Z,81.01
2023-05-11T18:31:13.915Z,81.10
2023-05-11T18:33:41.167Z,80.88
2023-05-11T18:36:08.402Z,81.12
2023-05-11T18:38:35.667Z,81.44
2023-05-11T18:41:08.434Z,81.93
2023-05-11T18:43:35.791Z,81.77
2023-05-11T18:46:07.676Z,82.04
2023-05-11T18:48:35.164Z,82.21
2023-05-11T18:51:06.064Z,82.35
2023-05-11T18:53:33.603Z,82.51
2023-05-11T18:56:00.842Z,82.90
2023-05-11T18:58:31.445Z,82.95
2023-05-11T19:01:02.239Z,83.41
2023-05-11T19:03:32.385Z,83.51
2023-05-11T19:06:00.955Z,83.70
2023-05-11T19:08:28.951Z,83.72
2023-05-11T19:10:56.170Z,83.80
2023-05-11T19:13:23.450Z,83.95
2023-05-11T19:15:50.590Z,83.96
2023-05-11T19:18:17.926Z,84.10
2023-05-11T19:20:45.207Z,84.00
2023-05-11T19:23:12.379Z,83.95
2023-05-11T19:25:40.368Z,83.50
2023-05-11T19:28:07.550Z,83.64
2023-05-11T19:30:34.889Z,83.59
2023-05-11T19:33:02.353Z,84.04
2023-05-11T19:35:30.116Z,84.05
2023-05-11T19:37:57.249Z,84.43
2023-05-11T19:42:55.563Z,84.42
2023-05-11T19:45:22.794Z,84.46
2023-05-11T19:47:49.937Z,84.50
2023-05-11T19:50:20.436Z,84.51
2023-05-11T19:52:49.158Z,84.71
2023-05-11T19:55:16.334Z,84.70
2023-05-11T19:57:43.556Z,84.81
2023-05-11T20:00:11.802Z,84.95
2023-05-11T20:02:39.191Z,85.06
2023-05-11T20:05:07.571Z,85.61
2023-05-11T20:07:39.227Z,85.91
2023-05-11T20:10:11.052Z,86.28
2023-05-11T20:12:38.457Z,86.33
2023-05-11T20:15:07.169Z,87.09
2023-05-11T20:17:35.545Z,86.69
2023-05-11T20:20:04.380Z,86.93
2023-05-11T20:22:33.452Z,86.92
2023-05-11T20:25:00.617Z,87.38
2023-05-11T20:27:27.689Z,87.14
2023-05-11T20:29:55.051Z,86.97
2023-05-11T20:32:22.526Z,87.16
2023-05-11T20:34:53.034Z,87.62
2023-05-11T20:37:20.237Z,87.49
2023-05-11T20:39:47.455Z,87.66
2023-05-11T20:42:14.603Z,87.40
2023-05-11T20:44:41.847Z,87.38
2023-05-11T20:47:09.167Z,87.72
2023-05-11T20:49:39.277Z,87.75
2023-05-11T20:52:07.804Z,87.69
2023-05-11T20:54:35.895Z,87.87
2023-05-11T20:57:08.307Z,88.01
2023-05-11T21:02:06.023Z,88.28
2023-05-11T21:04:33.824Z,88.29
2023-05-11T21:07:01.174Z,88.73
2023-05-11T21:09:28.499Z,88.84
2023-05-11T21:11:55.774Z,88.96
2023-05-11T21:14:23.052Z,89.44
2023-05-11T21:16:50.286Z,89.26
2023-05-11T21:19:20.712Z,89.19
2023-05-11T21:21:49.604Z,89.54
2023-05-11T21:24:17.010Z,89.38
2023-05-11T21:26:47.982Z,89.50
2023-05-11T21:29:15.452Z,89.98
2023-05-11T21:31:42.576Z,89.78
2023-05-11T21:34:09.824Z,90.14
2023-05-11T21:36:38.939Z,90.28
2023-05-11T21:39:06.188Z,90.53
2023-05-11T21:41:33.311Z,90.59
2023-05-11T21:44:00.541Z,90.75
2023-05-11T21:46:27.732Z,90.66
2023-05-11T21:48:54.987Z,91.13
2023-05-11T21:51:22.111Z,91.47
2023-05-11T21:53:49.345Z,91.45
2023-05-11T21:56:16.473Z,91.84
2023-05-11T21:58:43.628Z,91.76
2023-05-11T22:01:10.711Z,91.59
2023-05-11T22:03:38.121Z,91.40
2023-05-11T22:06:06.579Z,91.72
2023-05-11T22:08:33.701Z,91.51
2023-05-11T22:11:00.858Z,92.09
2023-05-11T22:13:31.141Z,92.05
2023-05-11T22:15:58.239Z,92.03
2023-05-11T22:18:25.567Z,92.19
2023-05-11T22:20:52.695Z,92.75
2023-05-11T22:23:19.946Z,92.95
2023-05-11T22:25:47.141Z,93.09
2023-05-11T22:28:14.233Z,93.03
2023-05-11T22:30:41.400Z,93.26
2023-05-11T22:33:08.618Z,92.83
2023-05-11T22:35:35.840Z,93.23
2023-05-11T22:38:04.384Z,93.03
2023-05-11T22:40:31.625Z,92.89
2023-05-11T22:42:58.800Z,93.33
2023-05-11T22:45:26.076Z,93.26
2023-05-11T22:47:55.888Z,93.56
2023-05-11T22:50:23.152Z,93.36
2023-05-11T22:52:50.351Z,93.61
2023-05-11T22:55:17.632Z,93.96
2023-05-11T22:57:44.805Z,94.46
2023-05-11T23:00:12.568Z,94.51
2023-05-11T23:02:40.248Z,94.63
2023-05-11T23:05:08.081Z,94.83
2023-05-11T23:07:35.899Z,94.70
2023-05-11T23:10:03.094Z,94.57
2023-05-11T23:12:33.080Z,94.68
2023-05-11T23:15:00.305Z,95.00
2023-05-11T23:17:30.881Z,94.70
2023-05-11T23:19:57.971Z,94.87
2023-05-11T23:22:25.273Z,94.77
2023-05-11T23:24:54.940Z,94.93
2023-05-11T23:27:22.195Z,94.94
2023-05-11T23:29:49.328Z,95.50
2023-05-11T23:32:16.452Z,95.97
2023-05-11T23:34:43.884Z,96.18
2023-05-11T23:37:11.290Z,96.21
2023-05-11T23:39:39.349Z,95.91
2023-05-11T23:42:08.763Z,96.11
2023-05-11T23:44:36.220Z,96.13
2023-05-11T23:47:03.402Z,96.02
2023-05-11T23:49:30.548Z,96.03
2023-05-11T23:51:57.658Z,95.90
2023-05-11T23:54:24.764Z,96.06
2023-05-11T23:56:52.008Z,95.92
2023-05-11T23:59:19.276Z,95.88
